createdAt,value
2019-04-03T00:00:47.009Z,1002.16
2019-04-03T00:01:47.003Z,1002.13
2019-04-03T00:02:47.053Z,1002.19
2019-04-03T00:03:46.984Z,1002.16
2019-04-03T00:04:47.002Z,1002.15
2019-04-03T00:05:46.992Z,1002.07
2019-04-03T00:06:46.986Z,1002.11
2019-04-03T00:07:47.102Z,1002.06
2019-04-03T00:08:47.032Z,1002.03
2019-04-03T00:09:46.966Z,1002.10
2019-04-03T00:10:47.222Z,1002.07
2019-04-03T00:11:46.981Z,1002.08
2019-04-03T00:12:47.135Z,1002.09
2019-04-03T00:13:46.972Z,1002.07
2019-04-03T00:14:47.041Z,1002.05
2019-04-03T00:15:47.116Z,1002.08
2019-04-03T00:16:46.978Z,1002.11
2019-04-03T00:17:46.968Z,1002.05
2019-04-03T00:18:47.963Z,1002.03
2019-04-03T00:19:47.704Z,1002.11
2019-04-03T00:20:48.669Z,1002.06
2019-04-03T00:21:47.008Z,1002.04
2019-04-03T00:22:46.856Z,1002.07
2019-04-03T00:23:46.746Z,1002.11
2019-04-03T00:24:46.833Z,1002.11
2019-04-03T00:25:46.722Z,1002.11
2019-04-03T00:26:46.709Z,1002.15
2019-04-03T00:27:46.943Z,1002.13
2019-04-03T00:28:46.701Z,1002.14
2019-04-03T00:29:46.697Z,1002.13
2019-04-03T00:30:46.711Z,1002.18
2019-04-03T00:31:46.649Z,1002.11
2019-04-03T00:32:46.644Z,1002.09
2019-04-03T00:33:46.689Z,1002.16
2019-04-03T00:34:46.618Z,1002.14
2019-04-03T00:35:46.716Z,1002.13
2019-04-03T00:36:46.601Z,1002.14
2019-04-03T00:37:46.593Z,1002.13
2019-04-03T00:38:46.640Z,1002.12
2019-04-03T00:39:46.566Z,1002.17
2019-04-03T00:40:46.599Z,1002.15
2019-04-03T00:41:46.548Z,1002.19
2019-04-03T00:42:46.529Z,1002.21
2019-04-03T00:43:46.532Z,1002.17
2019-04-03T00:44:46.545Z,1002.18
2019-04-03T00:45:46.496Z,1002.12
2019-04-03T00:46:46.547Z,1002.16
2019-04-03T00:47:46.485Z,1002.22
2019-04-03T00:48:46.459Z,1002.25
2019-04-03T00:49:46.455Z,1002.29
2019-04-03T00:50:46.533Z,1002.26
2019-04-03T00:51:46.427Z,1002.26
2019-04-03T00:52:46.520Z,1002.20
2019-04-03T00:53:46.411Z,1002.20
2019-04-03T00:54:46.480Z,1002.20
2019-04-03T00:55:46.392Z,1002.19
2019-04-03T00:56:46.374Z,1002.22
2019-04-03T00:57:46.366Z,1002.19
2019-04-03T00:58:46.407Z,1002.23
2019-04-03T00:59:46.342Z,1002.25
2019-04-03T01:00:46.354Z,1002.24
2019-04-03T01:01:46.330Z,1002.17
2019-04-03T01:02:46.359Z,1002.14
2019-04-03T01:03:46.299Z,1002.09
2019-04-03T01:04:46.283Z,1002.11
2019-04-03T01:05:46.277Z,1002.06
2019-04-03T01:06:46.268Z,1002.10
2019-04-03T01:07:46.264Z,1002.11
2019-04-03T01:08:46.299Z,1002.16
2019-04-03T01:09:46.239Z,1002.11
2019-04-03T01:10:46.221Z,1002.11
2019-04-03T01:11:46.207Z,1002.14
2019-04-03T01:12:46.196Z,1002.08
2019-04-03T01:13:46.712Z,1002.09
2019-04-03T01:14:46.172Z,1002.09
2019-04-03T01:15:46.178Z,1002.08
2019-04-03T01:16:46.186Z,1002.06
2019-04-03T01:17:46.147Z,1002.02
2019-04-03T01:18:46.352Z,1002.09
2019-04-03T01:19:46.130Z,1002.00
2019-04-03T01:20:46.107Z,1002.01
2019-04-03T01:21:46.099Z,1002.00
2019-04-03T01:22:46.088Z,1001.99
2019-04-03T01:23:46.132Z,1001.99
2019-04-03T01:24:46.155Z,1001.98
2019-04-03T01:25:46.048Z,1001.96
2019-04-03T01:26:46.110Z,1001.93
2019-04-03T01:27:46.048Z,1001.94
2019-04-03T01:28:46.108Z,1001.97
2019-04-03T01:29:46.016Z,1002.01
2019-04-03T01:30:45.991Z,1001.98
2019-04-03T01:31:45.986Z,1001.93
2019-04-03T01:32:46.812Z,1001.90
2019-04-03T01:33:46.799Z,1001.86
2019-04-03T01:34:47.708Z,1001.86
2019-04-03T01:35:47.456Z,1001.83
2019-04-03T01:36:46.579Z,1001.79
2019-04-03T01:37:46.012Z,1001.77
2019-04-03T01:38:45.923Z,1001.80
2019-04-03T01:39:45.899Z,1001.84
2019-04-03T01:40:45.887Z,1001.77
2019-04-03T01:41:45.879Z,1001.77
2019-04-03T01:42:45.932Z,1001.80
2019-04-03T01:43:45.907Z,1001.81
2019-04-03T01:44:45.841Z,1001.82
2019-04-03T01:45:46.019Z,1001.83
2019-04-03T01:46:45.818Z,1001.81
2019-04-03T01:47:45.810Z,1001.76
2019-04-03T01:48:45.872Z,1001.76
2019-04-03T01:49:45.797Z,1001.72
2019-04-03T01:50:45.903Z,1001.68
2019-04-03T01:51:45.762Z,1001.65
2019-04-03T01:52:45.751Z,1001.65
2019-04-03T01:53:45.752Z,1001.67
2019-04-03T01:54:45.840Z,1001.68
2019-04-03T01:55:45.818Z,1001.63
2019-04-03T01:56:45.852Z,1001.66
2019-04-03T01:57:45.696Z,1001.63
2019-04-03T01:58:45.684Z,1001.64
2019-04-03T01:59:45.884Z,1001.61
2019-04-03T02:00:45.709Z,1001.57
2019-04-03T02:01:45.706Z,1001.59
2019-04-03T02:02:45.667Z,1001.54
2019-04-03T02:03:45.784Z,1001.55
2019-04-03T02:04:45.613Z,1001.53
2019-04-03T02:05:45.827Z,1001.50
2019-04-03T02:06:45.642Z,1001.52
2019-04-03T02:07:45.594Z,1001.50
2019-04-03T02:08:45.599Z,1001.51
2019-04-03T02:09:46.554Z,1001.47
2019-04-03T02:10:48.219Z,1001.45
2019-04-03T02:11:45.633Z,1001.42
2019-04-03T02:12:45.573Z,1001.41
2019-04-03T02:13:45.570Z,1001.36
2019-04-03T02:14:45.503Z,1001.39
2019-04-03T02:15:52.934Z,1001.37
2019-04-03T02:16:45.492Z,1001.35
2019-04-03T02:17:45.518Z,1001.34
2019-04-03T02:18:45.514Z,1001.33
2019-04-03T02:19:45.451Z,1001.35
2019-04-03T02:20:45.491Z,1001.36
2019-04-03T02:21:45.422Z,1001.41
2019-04-03T02:22:45.519Z,1001.41
2019-04-03T02:23:45.410Z,1001.43
2019-04-03T02:24:45.493Z,1001.40
2019-04-03T02:25:45.576Z,1001.44
2019-04-03T02:26:45.373Z,1001.44
2019-04-03T02:27:45.363Z,1001.42
2019-04-03T02:28:45.358Z,1001.37
2019-04-03T02:29:45.356Z,1001.42
2019-04-03T02:30:46.893Z,1001.36
2019-04-03T02:31:45.374Z,1001.37
2019-04-03T02:32:45.312Z,1001.37
2019-04-03T02:33:45.296Z,1001.35
2019-04-03T02:34:45.318Z,1001.26
2019-04-03T02:35:45.439Z,1001.22
2019-04-03T02:36:45.684Z,1001.23
2019-04-03T02:37:48.733Z,1001.27
2019-04-03T02:38:45.516Z,1001.32
2019-04-03T02:39:45.259Z,1001.30
2019-04-03T02:40:45.236Z,1001.25
2019-04-03T02:41:45.238Z,1001.27
2019-04-03T02:42:45.262Z,1001.28
2019-04-03T02:43:46.537Z,1001.27
2019-04-03T02:44:45.178Z,1001.29
2019-04-03T02:45:45.182Z,1001.39
2019-04-03T02:46:45.641Z,1001.36
2019-04-03T02:47:45.446Z,1001.36
2019-04-03T02:48:45.195Z,1001.36
2019-04-03T02:49:45.169Z,1001.42
2019-04-03T02:50:47.570Z,1001.38
2019-04-03T02:51:45.148Z,1001.43
2019-04-03T02:52:45.091Z,1001.41
2019-04-03T02:53:45.420Z,1001.40
2019-04-03T02:54:45.066Z,1001.38
2019-04-03T02:55:45.317Z,1001.36
2019-04-03T02:56:46.035Z,1001.39
2019-04-03T02:57:48.668Z,1001.41
2019-04-03T02:58:45.045Z,1001.41
2019-04-03T02:59:45.235Z,1001.39
2019-04-03T03:00:45.010Z,1001.40
2019-04-03T03:01:45.055Z,1001.36
2019-04-03T03:02:45.819Z,1001.37
2019-04-03T03:03:48.494Z,1001.39
2019-04-03T03:04:44.955Z,1001.42
2019-04-03T03:05:45.085Z,1001.41
2019-04-03T03:06:44.944Z,1001.39
2019-04-03T03:07:45.215Z,1001.40
2019-04-03T03:08:45.397Z,1001.37
2019-04-03T03:09:46.912Z,1001.37
2019-04-03T03:10:44.901Z,1001.38
2019-04-03T03:11:45.220Z,1001.39
2019-04-03T03:12:44.867Z,1001.34
2019-04-03T03:13:44.928Z,1001.38
2019-04-03T03:14:44.857Z,1001.38
2019-04-03T03:15:45.465Z,1001.29
2019-04-03T03:16:44.931Z,1001.29
2019-04-03T03:17:45.252Z,1001.30
2019-04-03T03:18:44.818Z,1001.32
2019-04-03T03:19:44.889Z,1001.32
2019-04-03T03:20:45.072Z,1001.34
2019-04-03T03:21:45.594Z,1001.35
2019-04-03T03:22:44.760Z,1001.35
2019-04-03T03:23:44.745Z,1001.39
2019-04-03T03:24:45.066Z,1001.36
2019-04-03T03:25:44.759Z,1001.37
2019-04-03T03:26:44.773Z,1001.38
2019-04-03T03:27:44.705Z,1001.36
2019-04-03T03:28:46.917Z,1001.34
2019-04-03T03:29:44.678Z,1001.34
2019-04-03T03:30:54.922Z,1001.35
2019-04-03T03:32:05.064Z,1001.34
2019-04-03T03:32:46.072Z,1001.34
2019-04-03T03:33:45.260Z,1001.39
2019-04-03T03:34:52.878Z,1001.36
2019-04-03T03:35:48.532Z,1001.35
2019-04-03T03:36:44.832Z,1001.32
2019-04-03T03:37:44.606Z,1001.29
2019-04-03T03:38:44.794Z,1001.26
2019-04-03T03:39:44.713Z,1001.22
2019-04-03T03:40:47.302Z,1001.27
2019-04-03T03:41:45.015Z,1001.23
2019-04-03T03:42:44.847Z,1001.19
2019-04-03T03:43:44.523Z,1001.25
2019-04-03T03:44:46.138Z,1001.22
2019-04-03T03:45:44.747Z,1001.24
2019-04-03T03:46:44.503Z,1001.23
2019-04-03T03:47:44.569Z,1001.21
2019-04-03T03:48:45.482Z,1001.21
2019-04-03T03:49:44.662Z,1001.21
2019-04-03T03:50:44.552Z,1001.19
2019-04-03T03:51:44.692Z,1001.15
2019-04-03T03:52:44.430Z,1001.17
2019-04-03T03:53:45.975Z,1001.18
2019-04-03T03:54:44.406Z,1001.21
2019-04-03T03:55:44.389Z,1001.25
2019-04-03T03:56:44.762Z,1001.26
2019-04-03T03:57:44.385Z,1001.25
2019-04-03T03:58:45.700Z,1001.24
2019-04-03T03:59:44.346Z,1001.16
2019-04-03T04:00:44.339Z,1001.18
2019-04-03T04:01:44.318Z,1001.18
2019-04-03T04:02:45.190Z,1001.21
2019-04-03T04:03:44.589Z,1001.22
2019-04-03T04:04:46.661Z,1001.24
2019-04-03T04:05:44.279Z,1001.22
2019-04-03T04:06:44.308Z,1001.24
2019-04-03T04:07:44.445Z,1001.17
2019-04-03T04:08:45.370Z,1001.14
2019-04-03T04:09:44.293Z,1001.13
2019-04-03T04:10:44.511Z,1001.15
2019-04-03T04:11:44.280Z,1001.15
2019-04-03T04:12:44.206Z,1001.15
2019-04-03T04:13:47.645Z,1001.19
2019-04-03T04:14:44.241Z,1001.17
2019-04-03T04:15:44.193Z,1001.17
2019-04-03T04:16:46.956Z,1001.18
2019-04-03T04:17:44.157Z,1001.13
2019-04-03T04:18:44.245Z,1001.16
2019-04-03T04:19:44.224Z,1001.17
2019-04-03T04:20:44.138Z,1001.20
2019-04-03T04:21:45.150Z,1001.22
2019-04-03T04:22:44.094Z,1001.24
2019-04-03T04:23:44.400Z,1001.26
2019-04-03T04:24:44.075Z,1001.35
2019-04-03T04:25:44.644Z,1001.31
2019-04-03T04:26:44.275Z,1001.30
2019-04-03T04:27:44.037Z,1001.27
2019-04-03T04:28:44.138Z,1001.23
2019-04-03T04:29:44.013Z,1001.17
2019-04-03T04:30:44.001Z,1001.09
2019-04-03T04:31:44.478Z,1001.06
2019-04-03T04:32:45.689Z,1001.01
2019-04-03T04:33:44.023Z,1001.01
2019-04-03T04:34:44.082Z,1001.06
2019-04-03T04:35:44.143Z,1001.04
2019-04-03T04:36:43.938Z,1001.07
2019-04-03T04:37:43.931Z,1001.14
2019-04-03T04:38:44.103Z,1001.14
2019-04-03T04:39:43.908Z,1001.12
2019-04-03T04:40:43.896Z,1001.17
2019-04-03T04:41:43.883Z,1001.17
2019-04-03T04:42:43.872Z,1001.17
2019-04-03T04:43:43.871Z,1001.21
2019-04-03T04:44:43.897Z,1001.20
2019-04-03T04:45:44.017Z,1001.18
2019-04-03T04:46:44.691Z,1001.22
2019-04-03T04:47:45.852Z,1001.22
2019-04-03T04:48:43.818Z,1001.22
2019-04-03T04:49:43.836Z,1001.17
2019-04-03T04:50:44.059Z,1001.14
2019-04-03T04:51:44.081Z,1001.14
2019-04-03T04:52:43.762Z,1001.10
2019-04-03T04:53:43.811Z,1001.11
2019-04-03T04:54:44.038Z,1001.10
2019-04-03T04:55:43.731Z,1001.05
2019-04-03T04:56:43.787Z,1001.05
2019-04-03T04:57:43.704Z,1001.01
2019-04-03T04:58:43.976Z,1000.97
2019-04-03T04:59:45.228Z,1001.02
2019-04-03T05:00:45.054Z,1001.04
2019-04-03T05:01:43.724Z,1001.01
2019-04-03T05:02:43.656Z,1001.07
2019-04-03T05:03:43.646Z,1001.08
2019-04-03T05:04:43.627Z,1001.12
2019-04-03T05:05:43.644Z,1001.10
2019-04-03T05:06:43.613Z,1001.11
2019-04-03T05:07:43.683Z,1001.13
2019-04-03T05:08:43.581Z,1001.15
2019-04-03T05:09:43.579Z,1001.13
2019-04-03T05:10:43.566Z,1001.19
2019-04-03T05:11:43.686Z,1001.18
2019-04-03T05:12:45.542Z,1001.20
2019-04-03T05:13:46.295Z,1001.20
2019-04-03T05:14:43.568Z,1001.19
2019-04-03T05:15:43.509Z,1001.22
2019-04-03T05:16:43.490Z,1001.19
2019-04-03T05:17:43.489Z,1001.22
2019-04-03T05:18:43.526Z,1001.13
2019-04-03T05:19:43.932Z,1001.13
2019-04-03T05:20:43.560Z,1001.07
2019-04-03T05:21:43.549Z,1001.14
2019-04-03T05:22:43.594Z,1001.06
2019-04-03T05:23:43.421Z,1001.05
2019-04-03T05:24:43.480Z,1001.05
2019-04-03T05:25:43.574Z,1001.10
2019-04-03T05:26:43.385Z,1001.09
2019-04-03T05:27:43.382Z,1001.08
2019-04-03T05:28:54.319Z,1001.10
2019-04-03T05:29:44.347Z,1001.09
2019-04-03T05:30:43.345Z,1001.10
2019-04-03T05:31:43.387Z,1001.12
2019-04-03T05:32:43.328Z,1001.10
2019-04-03T05:33:43.368Z,1001.12
2019-04-03T05:34:44.080Z,1001.12
2019-04-03T05:35:45.317Z,1001.11
2019-04-03T05:36:43.279Z,1001.13
2019-04-03T05:37:43.617Z,1001.12
2019-04-03T05:38:43.273Z,1001.07
2019-04-03T05:39:43.244Z,1001.06
2019-04-03T05:40:43.489Z,1001.00
2019-04-03T05:41:43.417Z,1001.03
2019-04-03T05:42:43.289Z,1001.04
2019-04-03T05:43:43.511Z,1001.03
2019-04-03T05:44:43.200Z,1001.05
2019-04-03T05:45:43.176Z,1001.09
2019-04-03T05:46:43.185Z,1001.07
2019-04-03T05:47:43.148Z,1001.09
2019-04-03T05:48:43.148Z,1001.08
2019-04-03T05:49:46.320Z,1001.11
2019-04-03T05:50:43.141Z,1001.10
2019-04-03T05:51:43.116Z,1001.13
2019-04-03T05:52:43.099Z,1001.14
2019-04-03T05:53:43.168Z,1001.13
2019-04-03T05:54:44.475Z,1001.10
2019-04-03T05:55:43.131Z,1001.14
2019-04-03T05:56:43.418Z,1001.15
2019-04-03T05:57:44.909Z,1001.10
2019-04-03T05:58:54.593Z,1001.15
2019-04-03T05:59:44.612Z,1001.14
2019-04-03T06:00:43.076Z,1001.20
2019-04-03T06:01:46.062Z,1001.16
2019-04-03T06:02:42.986Z,1001.20
2019-04-03T06:03:45.571Z,1001.20
2019-04-03T06:04:42.998Z,1001.20
2019-04-03T06:05:43.944Z,1001.23
2019-04-03T06:06:45.910Z,1001.19
2019-04-03T06:07:43.095Z,1001.13
2019-04-03T06:08:43.098Z,1001.14
2019-04-03T06:09:43.153Z,1001.15
2019-04-03T06:10:43.034Z,1001.08
2019-04-03T06:11:42.979Z,1001.11
2019-04-03T06:12:45.348Z,1001.07
2019-04-03T06:13:42.902Z,1001.09
2019-04-03T06:14:42.873Z,1001.08
2019-04-03T06:15:42.864Z,1001.07
2019-04-03T06:16:42.861Z,1001.08
2019-04-03T06:17:42.932Z,1001.04
2019-04-03T06:18:42.840Z,1001.03
2019-04-03T06:19:43.049Z,1001.06
2019-04-03T06:20:43.935Z,1001.09
2019-04-03T06:21:45.619Z,1001.08
2019-04-03T06:22:42.778Z,1001.05
2019-04-03T06:23:42.976Z,1001.09
2019-04-03T06:24:43.122Z,1001.08
2019-04-03T06:25:42.734Z,1001.07
2019-04-03T06:26:44.580Z,1001.05
2019-04-03T06:27:45.469Z,1001.07
2019-04-03T06:28:44.904Z,1001.09
2019-04-03T06:29:42.751Z,1001.03
2019-04-03T06:30:42.747Z,1001.01
2019-04-03T06:31:42.682Z,1001.05
2019-04-03T06:32:42.732Z,1001.04
2019-04-03T06:33:42.642Z,1000.98
2019-04-03T06:34:43.731Z,1000.96
2019-04-03T06:35:44.544Z,1000.98
2019-04-03T06:36:42.632Z,1000.97
2019-04-03T06:37:42.732Z,1000.96
2019-04-03T06:38:42.585Z,1000.97
2019-04-03T06:39:42.576Z,1000.90
2019-04-03T06:40:42.820Z,1000.92
2019-04-03T06:41:42.827Z,1000.92
2019-04-03T06:42:44.956Z,1000.85
2019-04-03T06:43:42.608Z,1000.88
2019-04-03T06:44:42.712Z,1000.83
2019-04-03T06:45:43.893Z,1000.86
2019-04-03T06:46:42.524Z,1000.88
2019-04-03T06:47:42.493Z,1000.93
2019-04-03T06:48:42.731Z,1000.94
2019-04-03T06:49:42.472Z,1000.88
2019-04-03T06:50:42.583Z,1000.96
2019-04-03T06:51:42.449Z,1000.91
2019-04-03T06:52:42.438Z,1000.96
2019-04-03T06:53:42.467Z,1000.94
2019-04-03T06:54:44.522Z,1000.90
2019-04-03T06:55:42.491Z,1000.94
2019-04-03T06:56:42.394Z,1000.89
2019-04-03T06:57:42.446Z,1000.87
2019-04-03T06:58:44.416Z,1000.87
2019-04-03T06:59:42.359Z,1000.86
2019-04-03T07:00:42.584Z,1000.82
2019-04-03T07:01:42.341Z,1000.85
2019-04-03T07:02:42.418Z,1000.96
2019-04-03T07:03:42.362Z,1000.88
2019-04-03T07:04:42.340Z,1000.90
2019-04-03T07:05:42.327Z,1000.92
2019-04-03T07:06:44.310Z,1000.83
2019-04-03T07:07:42.313Z,1000.84
2019-04-03T07:08:42.320Z,1000.81
2019-04-03T07:09:42.375Z,1000.83
2019-04-03T07:10:54.238Z,1000.81
2019-04-03T07:11:44.029Z,1000.79
2019-04-03T07:12:42.360Z,1000.85
2019-04-03T07:13:42.199Z,1000.90
2019-04-03T07:14:42.282Z,1000.85
2019-04-03T07:15:42.190Z,1000.84
2019-04-03T07:16:42.219Z,1000.87
2019-04-03T07:17:49.001Z,1000.86
2019-04-03T07:18:42.300Z,1000.88
2019-04-03T07:19:42.226Z,1000.88
2019-04-03T07:20:42.122Z,1000.83
2019-04-03T07:21:42.181Z,1000.90
2019-04-03T07:22:42.121Z,1000.89
2019-04-03T07:23:42.337Z,1000.92
2019-04-03T07:24:42.101Z,1000.93
2019-04-03T07:25:42.124Z,1000.96
2019-04-03T07:26:42.054Z,1000.97
2019-04-03T07:27:42.457Z,1000.99
2019-04-03T07:28:42.378Z,1000.99
2019-04-03T07:29:42.023Z,1000.97
2019-04-03T07:30:42.399Z,1000.99
2019-04-03T07:31:42.062Z,1000.97
2019-04-03T07:32:42.246Z,1000.98
2019-04-03T07:33:41.974Z,1000.96
2019-04-03T07:34:41.986Z,1000.99
2019-04-03T07:35:41.966Z,1000.92
2019-04-03T07:36:44.698Z,1000.89
2019-04-03T07:37:42.035Z,1000.91
2019-04-03T07:38:41.926Z,1000.92
2019-04-03T07:39:41.911Z,1000.95
2019-04-03T07:40:42.075Z,1000.91
2019-04-03T07:41:42.168Z,1000.92
2019-04-03T07:42:42.189Z,1000.96
2019-04-03T07:43:41.863Z,1000.95
2019-04-03T07:44:41.849Z,1000.97
2019-04-03T07:45:43.874Z,1000.97
2019-04-03T07:46:41.829Z,1000.97
2019-04-03T07:47:41.824Z,1000.97
2019-04-03T07:48:42.712Z,1000.97
2019-04-03T07:49:41.796Z,1001.02
2019-04-03T07:50:42.299Z,1000.92
2019-04-03T07:51:43.292Z,1001.04
2019-04-03T07:52:41.800Z,1001.05
2019-04-03T07:53:41.891Z,1001.03
2019-04-03T07:54:41.752Z,1001.01
2019-04-03T07:55:43.715Z,1001.01
2019-04-03T07:56:42.007Z,1001.03
2019-04-03T07:57:41.709Z,1001.07
2019-04-03T07:58:41.714Z,1001.04
2019-04-03T07:59:41.802Z,1001.11
2019-04-03T08:00:42.084Z,1001.06
2019-04-03T08:01:41.876Z,1000.99
2019-04-03T08:02:47.446Z,1001.02
2019-04-03T08:03:43.039Z,1001.01
2019-04-03T08:04:41.641Z,1001.00
2019-04-03T08:05:41.684Z,1001.05
2019-04-03T08:06:41.617Z,1000.95
2019-04-03T08:07:41.691Z,1001.01
2019-04-03T08:08:41.735Z,1001.01
2019-04-03T08:09:41.861Z,1000.95
2019-04-03T08:10:41.569Z,1000.97
2019-04-03T08:11:41.596Z,1000.91
2019-04-03T08:12:41.797Z,1000.88
2019-04-03T08:13:41.543Z,1000.84
2019-04-03T08:14:42.006Z,1000.95
2019-04-03T08:15:43.893Z,1000.99
2019-04-03T08:16:42.777Z,1000.88
2019-04-03T08:17:41.538Z,1000.92
2019-04-03T08:18:41.474Z,1000.94
2019-04-03T08:19:41.536Z,1000.93
2019-04-03T08:20:41.562Z,1000.93
2019-04-03T08:21:41.518Z,1000.95
2019-04-03T08:22:41.755Z,1000.95
2019-04-03T08:23:41.623Z,1000.94
2019-04-03T08:24:41.409Z,1001.00
2019-04-03T08:25:42.857Z,1000.94
2019-04-03T08:26:42.483Z,1000.92
2019-04-03T08:27:41.383Z,1000.96
2019-04-03T08:28:41.450Z,1000.97
2019-04-03T08:29:41.772Z,1000.91
2019-04-03T08:30:41.359Z,1000.90
2019-04-03T08:31:44.174Z,1000.96
2019-04-03T08:32:42.339Z,1000.92
2019-04-03T08:33:41.317Z,1000.94
2019-04-03T08:34:41.355Z,1000.98
2019-04-03T08:35:41.295Z,1000.91
2019-04-03T08:36:41.617Z,1000.96
2019-04-03T08:37:42.206Z,1000.90
2019-04-03T08:38:43.987Z,1000.94
2019-04-03T08:39:41.269Z,1000.91
2019-04-03T08:40:41.427Z,1000.88
2019-04-03T08:41:41.234Z,1000.92
2019-04-03T08:42:41.212Z,1000.93
2019-04-03T08:43:41.199Z,1000.88
2019-04-03T08:44:41.254Z,1000.89
2019-04-03T08:45:41.191Z,1000.82
2019-04-03T08:46:43.882Z,1000.85
2019-04-03T08:47:44.534Z,1000.85
2019-04-03T08:48:41.142Z,1000.84
2019-04-03T08:49:41.143Z,1000.84
2019-04-03T08:50:41.277Z,1000.82
2019-04-03T08:51:41.114Z,1000.84
2019-04-03T08:52:41.109Z,1000.77
2019-04-03T08:53:41.222Z,1000.75
2019-04-03T08:54:42.198Z,1000.77
2019-04-03T08:55:41.069Z,1000.77
2019-04-03T08:56:41.117Z,1000.65
2019-04-03T08:57:41.099Z,1000.69
2019-04-03T08:58:41.089Z,1000.69
2019-04-03T08:59:41.027Z,1000.73
2019-04-03T09:00:41.034Z,1000.73
2019-04-03T09:01:41.010Z,1000.63
2019-04-03T09:02:43.762Z,1000.58
2019-04-03T09:03:41.015Z,1000.53
2019-04-03T09:04:40.965Z,1000.55
2019-04-03T09:05:41.002Z,1000.55
2019-04-03T09:06:40.945Z,1000.56
2019-04-03T09:07:40.942Z,1000.56
2019-04-03T09:08:41.045Z,1000.58
2019-04-03T09:09:41.049Z,1000.57
2019-04-03T09:10:41.087Z,1000.62
2019-04-03T09:11:40.902Z,1000.61
2019-04-03T09:12:40.901Z,1000.58
2019-04-03T09:13:40.899Z,1000.61
2019-04-03T09:14:40.978Z,1000.60
2019-04-03T09:15:40.924Z,1000.67
2019-04-03T09:16:41.283Z,1000.57
2019-04-03T09:17:40.855Z,1000.59
2019-04-03T09:18:40.938Z,1000.65
2019-04-03T09:19:41.751Z,1000.69
2019-04-03T09:20:41.091Z,1000.66
2019-04-03T09:21:41.013Z,1000.70
2019-04-03T09:22:40.986Z,1000.67
2019-04-03T09:23:41.069Z,1000.65
2019-04-03T09:24:40.786Z,1000.62
2019-04-03T09:25:40.839Z,1000.62
2019-04-03T09:26:40.905Z,1000.52
2019-04-03T09:27:40.979Z,1000.58
2019-04-03T09:28:41.901Z,1000.43
2019-04-03T09:29:40.789Z,1000.51
2019-04-03T09:30:40.699Z,1000.47
2019-04-03T09:31:40.924Z,1000.47
2019-04-03T09:32:41.014Z,1000.41
2019-04-03T09:33:40.660Z,1000.39
2019-04-03T09:34:40.653Z,1000.36
2019-04-03T09:35:42.792Z,1000.49
2019-04-03T09:36:40.733Z,1000.46
2019-04-03T09:37:40.697Z,1000.47
2019-04-03T09:38:41.499Z,1000.45
2019-04-03T09:39:40.659Z,1000.48
2019-04-03T09:40:40.586Z,1000.39
2019-04-03T09:41:40.928Z,1000.48
2019-04-03T09:42:40.654Z,1000.42
2019-04-03T09:43:40.597Z,1000.41
2019-04-03T09:44:40.791Z,1000.44
2019-04-03T09:45:40.524Z,1000.49
2019-04-03T09:46:40.520Z,1000.46
2019-04-03T09:47:40.502Z,1000.53
2019-04-03T09:48:40.624Z,1000.47
2019-04-03T09:49:43.412Z,1000.49
2019-04-03T09:50:40.476Z,1000.30
2019-04-03T09:51:40.483Z,1000.31
2019-04-03T09:52:48.216Z,1000.24
2019-04-03T09:53:41.515Z,1000.31
2019-04-03T09:54:40.636Z,1000.25
2019-04-03T09:55:40.418Z,1000.24
2019-04-03T09:56:54.855Z,1000.27
2019-04-03T09:57:41.404Z,1000.25
2019-04-03T09:58:40.406Z,1000.19
2019-04-03T09:59:40.601Z,1000.23
2019-04-03T10:00:42.308Z,1000.32
2019-04-03T10:01:40.358Z,1000.26
2019-04-03T10:02:40.352Z,1000.33
2019-04-03T10:03:40.397Z,1000.28
2019-04-03T10:04:40.329Z,1000.29
2019-04-03T10:05:40.671Z,1000.27
2019-04-03T10:06:40.496Z,1000.31
2019-04-03T10:07:40.606Z,1000.28
2019-04-03T10:08:41.065Z,1000.23
2019-04-03T10:09:43.159Z,1000.28
2019-04-03T10:10:40.291Z,1000.23
2019-04-03T10:11:40.469Z,1000.24
2019-04-03T10:12:42.444Z,1000.24
2019-04-03T10:13:40.227Z,1000.20
2019-04-03T10:14:40.331Z,1000.23
2019-04-03T10:15:40.360Z,1000.22
2019-04-03T10:16:40.257Z,1000.25
2019-04-03T10:17:40.196Z,1000.21
2019-04-03T10:18:41.799Z,1000.17
2019-04-03T10:19:40.290Z,1000.27
2019-04-03T10:20:40.162Z,1000.27
2019-04-03T10:21:41.023Z,1000.14
2019-04-03T10:22:40.143Z,1000.25
2019-04-03T10:23:40.248Z,1000.15
2019-04-03T10:24:40.147Z,1000.20
2019-04-03T10:25:40.384Z,1000.10
2019-04-03T10:26:40.926Z,1000.18
2019-04-03T10:27:42.677Z,1000.18
2019-04-03T10:28:42.168Z,1000.01
2019-04-03T10:29:40.187Z,1000.09
2019-04-03T10:30:40.060Z,1000.11
2019-04-03T10:31:40.035Z,1000.03
2019-04-03T10:32:40.271Z,1000.02
2019-04-03T10:33:40.028Z,1000.03
2019-04-03T10:34:40.020Z,1000.06
2019-04-03T10:35:40.128Z,1000.03
2019-04-03T10:36:42.046Z,999.95
2019-04-03T10:37:39.997Z,999.99
2019-04-03T10:38:41.886Z,1000.08
2019-04-03T10:39:43.725Z,999.86
2019-04-03T10:40:41.870Z,999.86
2019-04-03T10:41:40.082Z,999.87
2019-04-03T10:42:40.225Z,999.83
2019-04-03T10:43:39.920Z,999.74
2019-04-03T10:44:40.013Z,999.85
2019-04-03T10:45:40.235Z,999.93
2019-04-03T10:46:39.960Z,999.88
2019-04-03T10:47:43.370Z,999.90
2019-04-03T10:48:40.140Z,999.81
2019-04-03T10:49:40.345Z,999.72
2019-04-03T10:50:39.837Z,999.74
2019-04-03T10:51:41.885Z,999.65
2019-04-03T10:52:40.165Z,999.57
2019-04-03T10:53:39.944Z,999.69
2019-04-03T10:54:39.861Z,999.61
2019-04-03T10:55:40.099Z,999.56
2019-04-03T10:56:39.838Z,999.52
2019-04-03T10:57:39.803Z,999.50
2019-04-03T10:58:42.265Z,999.53
2019-04-03T10:59:40.233Z,999.48
2019-04-03T11:00:39.846Z,999.44
2019-04-03T11:01:40.070Z,999.47
2019-04-03T11:02:39.823Z,999.46
2019-04-03T11:03:39.719Z,999.45
2019-04-03T11:04:39.782Z,999.55
2019-04-03T11:05:39.686Z,999.52
2019-04-03T11:06:40.063Z,999.44
2019-04-03T11:07:39.672Z,999.48
2019-04-03T11:08:39.670Z,999.47
2019-04-03T11:09:39.649Z,999.57
2019-04-03T11:10:39.889Z,999.57
2019-04-03T11:11:42.544Z,999.52
2019-04-03T11:12:39.636Z,999.45
2019-04-03T11:13:39.602Z,999.48
2019-04-03T11:14:40.019Z,999.55
2019-04-03T11:15:39.601Z,999.45
2019-04-03T11:16:39.674Z,999.48
2019-04-03T11:17:39.567Z,999.48
2019-04-03T11:19:06.641Z,999.40
2019-04-03T11:19:39.757Z,999.41
2019-04-03T11:20:40.978Z,999.41
2019-04-03T11:21:39.819Z,999.35
2019-04-03T11:22:41.815Z,999.32
2019-04-03T11:23:44.449Z,999.23
2019-04-03T11:24:42.533Z,999.23
2019-04-03T11:25:41.951Z,999.24
2019-04-03T11:26:39.490Z,999.25
2019-04-03T11:27:43.675Z,999.19
2019-04-03T11:28:40.468Z,999.17
2019-04-03T11:29:41.916Z,999.20
2019-04-03T11:30:39.842Z,999.20
2019-04-03T11:31:41.834Z,999.25
2019-04-03T11:32:41.263Z,999.15
2019-04-03T11:33:39.457Z,999.19
2019-04-03T11:34:39.376Z,999.16
2019-04-03T11:35:39.373Z,999.07
2019-04-03T11:36:39.373Z,999.09
2019-04-03T11:37:39.396Z,999.14
2019-04-03T11:38:39.403Z,999.24
2019-04-03T11:39:39.519Z,999.18
2019-04-03T11:40:39.516Z,999.10
2019-04-03T11:41:39.537Z,999.10
2019-04-03T11:42:39.377Z,999.11
2019-04-03T11:43:39.721Z,999.04
2019-04-03T11:44:39.334Z,999.05
2019-04-03T11:45:39.602Z,999.09
2019-04-03T11:46:39.812Z,999.16
2019-04-03T11:47:39.316Z,999.14
2019-04-03T11:48:42.036Z,999.12
2019-04-03T11:49:39.232Z,999.08
2019-04-03T11:50:40.144Z,999.06
2019-04-03T11:51:39.503Z,998.70
2019-04-03T11:52:39.255Z,999.00
2019-04-03T11:53:39.222Z,998.91
2019-04-03T11:54:39.999Z,998.94
2019-04-03T11:55:39.945Z,998.98
2019-04-03T11:56:39.170Z,999.10
2019-04-03T11:57:39.223Z,999.08
2019-04-03T11:58:39.131Z,999.06
2019-04-03T11:59:39.192Z,998.96
2019-04-03T12:00:39.151Z,998.99
2019-04-03T12:01:39.120Z,999.06
2019-04-03T12:02:40.037Z,998.97
2019-04-03T12:03:39.248Z,999.02
2019-04-03T12:04:39.159Z,998.91
2019-04-03T12:05:39.347Z,998.88
2019-04-03T12:06:39.688Z,998.87
2019-04-03T12:07:39.041Z,998.73
2019-04-03T12:08:39.217Z,998.71